sensor_id;sensor_type;location;lat;lon;timestamp;temperature;humidity
51557;DHT22;38766;53.194;5.532;2023-07-29T00:02:11;18.90;99.90
51557;DHT22;38766;53.194;5.532;2023-07-29T00:04:37;18.80;99.90
51557;DHT22;38766;53.194;5.532;2023-07-29T00:07:03;18.90;99.90
51557;DHT22;38766;53.194;5.532;2023-07-29T00:09:28;18.80;99.90
51557;DHT22;38766;53.194;5.532;2023-07-29T00:11:54;18.80;99.90
51557;DHT22;38766;53.194;5.532;2023-07-29T00:14:20;18.80;99.90
51557;DHT22;38766;53.194;5.532;2023-07-29T00:16:45;18.90;99.90
51557;DHT22;38766;53.194;5.532;2023-07-29T00:19:11;18.80;99.90
51557;DHT22;38766;53.194;5.532;2023-07-29T00:21:36;18.80;99.90
51557;DHT22;38766;53.194;5.532;2023-07-29T00:24:05;18.80;99.90
51557;DHT22;38766;53.194;5.532;2023-07-29T00:26:31;18.80;99.90
51557;DHT22;38766;53.194;5.532;2023-07-29T00:28:57;18.80;99.90
51557;DHT22;38766;53.194;5.532;2023-07-29T00:31:23;18.80;99.90
51557;DHT22;38766;53.194;5.532;2023-07-29T00:33:49;18.80;99.90
51557;DHT22;38766;53.194;5.532;2023-07-29T00:36:14;18.80;99.90
51557;DHT22;38766;53.194;5.532;2023-07-29T00:38:40;18.80;99.90
51557;DHT22;38766;53.194;5.532;2023-07-29T00:41:06;18.70;99.90
51557;DHT22;38766;53.194;5.532;2023-07-29T00:43:32;18.70;99.90
51557;DHT22;38766;53.194;5.532;2023-07-29T00:45:57;18.70;99.90
51557;DHT22;38766;53.194;5.532;2023-07-29T00:48:25;18.70;99.90
51557;DHT22;38766;53.194;5.532;2023-07-29T00:50:51;18.70;99.90
51557;DHT22;38766;53.194;5.532;2023-07-29T00:53:16;18.70;99.90
51557;DHT22;38766;53.194;5.532;2023-07-29T00:55:43;18.60;99.90
51557;DHT22;38766;53.194;5.532;2023-07-29T00:58:10;18.60;99.90
51557;DHT22;38766;53.194;5.532;2023-07-29T01:00:36;18.60;99.90
51557;DHT22;38766;53.194;5.532;2023-07-29T01:03:03;18.60;99.90
51557;DHT22;38766;53.194;5.532;2023-07-29T01:05:35;18.60;99.90
51557;DHT22;38766;53.194;5.532;2023-07-29T01:08:05;18.50;99.90
51557;DHT22;38766;53.194;5.532;2023-07-29T01:10:46;18.60;99.90
51557;DHT22;38766;53.194;5.532;2023-07-29T01:16:02;18.60;99.90
51557;DHT22;38766;53.194;5.532;2023-07-29T01:18:31;18.50;99.90
51557;DHT22;38766;53.194;5.532;2023-07-29T01:20:59;18.50;99.90
51557;DHT22;38766;53.194;5.532;2023-07-29T01:23:29;18.50;99.90
51557;DHT22;38766;53.194;5.532;2023-07-29T01:25:54;18.60;99.90
51557;DHT22;38766;53.194;5.532;2023-07-29T01:28:24;18.60;99.90
51557;DHT22;38766;53.194;5.532;2023-07-29T01:30:56;18.60;99.90
51557;DHT22;38766;53.194;5.532;2023-07-29T01:33:26;18.60;99.90
51557;DHT22;38766;53.194;5.532;2023-07-29T01:36:01;18.60;99.90
51557;DHT22;38766;53.194;5.532;2023-07-29T01:38:36;18.60;99.90
51557;DHT22;38766;53.194;5.532;2023-07-29T01:41:08;18.60;99.90
51557;DHT22;38766;53.194;5.532;2023-07-29T01:43:34;18.60;99.90
51557;DHT22;38766;53.194;5.532;2023-07-29T01:46:05;18.60;99.90
51557;DHT22;38766;53.194;5.532;2023-07-29T01:48:31;18.60;99.90
51557;DHT22;38766;53.194;5.532;2023-07-29T01:50:57;18.60;99.90
51557;DHT22;38766;53.194;5.532;2023-07-29T01:53:23;18.60;99.90
51557;DHT22;38766;53.194;5.532;2023-07-29T01:55:49;18.60;99.90
51557;DHT22;38766;53.194;5.532;2023-07-29T01:58:14;18.60;99.90
51557;DHT22;38766;53.194;5.532;2023-07-29T02:00:40;18.60;99.90
51557;DHT22;38766;53.194;5.532;2023-07-29T02:03:06;18.60;99.90
51557;DHT22;38766;53.194;5.532;2023-07-29T02:05:31;18.50;99.90
51557;DHT22;38766;53.194;5.532;2023-07-29T02:07:57;18.50;99.90
51557;DHT22;38766;53.194;5.532;2023-07-29T02:10:23;18.50;99.90
51557;DHT22;38766;53.194;5.532;2023-07-29T02:12:48;18.50;99.90
51557;DHT22;38766;53.194;5.532;2023-07-29T02:15:14;18.50;99.90
51557;DHT22;38766;53.194;5.532;2023-07-29T02:17:42;18.50;99.90
51557;DHT22;38766;53.194;5.532;2023-07-29T02:20:08;18.50;99.90
51557;DHT22;38766;53.194;5.532;2023-07-29T02:22:36;18.50;99.90
51557;DHT22;38766;53.194;5.532;2023-07-29T02:25:01;18.50;99.90
51557;DHT22;38766;53.194;5.532;2023-07-29T02:27:28;18.50;99.90
51557;DHT22;38766;53.194;5.532;2023-07-29T02:29:54;18.50;99.90
51557;DHT22;38766;53.194;5.532;2023-07-29T02:32:20;18.50;99.90
51557;DHT22;38766;53.194;5.532;2023-07-29T02:34:46;18.50;99.90
51557;DHT22;38766;53.194;5.532;2023-07-29T02:37:11;18.50;99.90
51557;DHT22;38766;53.194;5.532;2023-07-29T02:39:37;18.50;99.90
51557;DHT22;38766;53.194;5.532;2023-07-29T02:42:03;18.40;99.90
51557;DHT22;38766;53.194;5.532;2023-07-29T02:44:29;18.40;99.90
51557;DHT22;38766;53.194;5.532;2023-07-29T02:46:55;18.40;99.90
51557;DHT22;38766;53.194;5.532;2023-07-29T02:49:22;18.40;99.90
51557;DHT22;38766;53.194;5.532;2023-07-29T02:51:50;18.30;99.90
51557;DHT22;38766;53.194;5.532;2023-07-29T02:54:16;18.40;99.90
51557;DHT22;38766;53.194;5.532;2023-07-29T02:56:41;18.30;99.90
51557;DHT22;38766;53.194;5.532;2023-07-29T02:59:07;18.30;99.90
51557;DHT22;38766;53.194;5.532;2023-07-29T03:01:34;18.30;99.90
51557;DHT22;38766;53.194;5.532;2023-07-29T03:03:59;18.20;99.90
51557;DHT22;38766;53.194;5.532;2023-07-29T03:06:25;18.20;99.90
51557;DHT22;38766;53.194;5.532;2023-07-29T03:08:51;18.20;99.90
51557;DHT22;38766;53.194;5.532;2023-07-29T03:11:16;18.20;99.90
51557;DHT22;38766;53.194;5.532;2023-07-29T03:13:43;18.20;99.90
51557;DHT22;38766;53.194;5.532;2023-07-29T03:16:10;18.20;99.90
51557;DHT22;38766;53.194;5.532;2023-07-29T03:18:36;18.10;99.90
51557;DHT22;38766;53.194;5.532;2023-07-29T03:21:02;18.10;99.90
51557;DHT22;38766;53.194;5.532;2023-07-29T03:23:29;18.20;99.90
51557;DHT22;38766;53.194;5.532;2023-07-29T03:25:55;18.10;99.90
51557;DHT22;38766;53.194;5.532;2023-07-29T03:28:25;18.10;99.90
51557;DHT22;38766;53.194;5.532;2023-07-29T03:30:50;18.00;99.90
51557;DHT22;38766;53.194;5.532;2023-07-29T03:33:16;18.10;99.90
51557;DHT22;38766;53.194;5.532;2023-07-29T03:35:42;18.00;99.90
51557;DHT22;38766;53.194;5.532;2023-07-29T03:38:19;18.00;99.90
51557;DHT22;38766;53.194;5.532;2023-07-29T03:40:45;17.90;99.90
51557;DHT22;38766;53.194;5.532;2023-07-29T03:43:10;17.90;99.90
51557;DHT22;38766;53.194;5.532;2023-07-29T03:45:36;17.90;99.90
51557;DHT22;38766;53.194;5.532;2023-07-29T03:48:04;17.80;99.90
51557;DHT22;38766;53.194;5.532;2023-07-29T03:50:29;17.80;99.90
51557;DHT22;38766;53.194;5.532;2023-07-29T03:52:56;17.80;99.90
51557;DHT22;38766;53.194;5.532;2023-07-29T03:55:22;17.80;99.90
51557;DHT22;38766;53.194;5.532;2023-07-29T03:57:48;17.80;99.90
51557;DHT22;38766;53.194;5.532;2023-07-29T04:00:14;17.80;99.90
51557;DHT22;38766;53.194;5.532;2023-07-29T04:02:44;17.80;99.90
51557;DHT22;38766;53.194;5.532;2023-07-29T04:05:11;17.80;99.90
51557;DHT22;38766;53.194;5.532;2023-07-29T04:07:36;17.80;99.90
51557;DHT22;38766;53.194;5.532;2023-07-29T04:10:03;17.80;99.90
51557;DHT22;38766;53.194;5.532;2023-07-29T04:12:30;17.80;99.90
51557;DHT22;38766;53.194;5.532;2023-07-29T04:14:56;17.70;99.90
51557;DHT22;38766;53.194;5.532;2023-07-29T04:17:21;17.70;99.90
51557;DHT22;38766;53.194;5.532;2023-07-29T04:19:47;17.70;99.90
51557;DHT22;38766;53.194;5.532;2023-07-29T04:22:15;17.70;99.90
51557;DHT22;38766;53.194;5.532;2023-07-29T04:24:40;17.60;99.90
51557;DHT22;38766;53.194;5.532;2023-07-29T04:27:06;17.70;99.90
51557;DHT22;38766;53.194;5.532;2023-07-29T04:29:32;17.70;99.90
51557;DHT22;38766;53.194;5.532;2023-07-29T04:31:57;17.60;99.90
51557;DHT22;38766;53.194;5.532;2023-07-29T04:34:23;17.60;99.90
51557;DHT22;38766;53.194;5.532;2023-07-29T04:36:49;17.60;99.90
51557;DHT22;38766;53.194;5.532;2023-07-29T04:39:15;17.60;99.90
51557;DHT22;38766;53.194;5.532;2023-07-29T04:41:40;17.60;99.90
51557;DHT22;38766;53.194;5.532;2023-07-29T04:44:07;17.60;99.90
51557;DHT22;38766;53.194;5.532;2023-07-29T04:46:36;17.60;99.90
51557;DHT22;38766;53.194;5.532;2023-07-29T04:49:02;17.60;99.90
51557;DHT22;38766;53.194;5.532;2023-07-29T04:51:28;17.70;99.90
51557;DHT22;38766;53.194;5.532;2023-07-29T04:53:54;17.70;99.90
51557;DHT22;38766;53.194;5.532;2023-07-29T04:56:19;17.70;99.90
51557;DHT22;38766;53.194;5.532;2023-07-29T04:58:45;17.70;99.90
51557;DHT22;38766;53.194;5.532;2023-07-29T05:01:11;17.70;99.90
51557;DHT22;38766;53.194;5.532;2023-07-29T05:03:37;17.70;99.90
51557;DHT22;38766;53.194;5.532;2023-07-29T05:06:05;17.70;99.90
51557;DHT22;38766;53.194;5.532;2023-07-29T05:08:30;17.80;99.90
51557;DHT22;38766;53.194;5.532;2023-07-29T05:10:56;17.70;99.90
51557;DHT22;38766;53.194;5.532;2023-07-29T05:13:22;17.80;99.90
51557;DHT22;38766;53.194;5.532;2023-07-29T05:15:49;17.80;99.90
51557;DHT22;38766;53.194;5.532;2023-07-29T05:18:15;17.80;99.90
51557;DHT22;38766;53.194;5.532;2023-07-29T05:20:41;17.80;99.90
51557;DHT22;38766;53.194;5.532;2023-07-29T05:23:06;17.80;99.90
51557;DHT22;38766;53.194;5.532;2023-07-29T05:25:32;17.80;99.90
51557;DHT22;38766;53.194;5.532;2023-07-29T05:28:03;17.90;99.90
51557;DHT22;38766;53.194;5.532;2023-07-29T05:30:30;17.90;99.90
51557;DHT22;38766;53.194;5.532;2023-07-29T05:33:03;18.00;99.90
51557;DHT22;38766;53.194;5.532;2023-07-29T05:35:29;18.00;99.90
51557;DHT22;38766;53.194;5.532;2023-07-29T05:37:55;18.00;99.90
51557;DHT22;38766;53.194;5.532;2023-07-29T05:40:21;18.00;99.90
51557;DHT22;38766;53.194;5.532;2023-07-29T05:42:46;18.10;99.90
51557;DHT22;38766;53.194;5.532;2023-07-29T05:45:13;18.10;99.90
51557;DHT22;38766;53.194;5.532;2023-07-29T05:47:38;18.20;99.90
51557;DHT22;38766;53.194;5.532;2023-07-29T05:50:07;18.10;99.90
51557;DHT22;38766;53.194;5.532;2023-07-29T05:52:33;18.20;99.90
51557;DHT22;38766;53.194;5.532;2023-07-29T05:54:59;18.20;99.90
51557;DHT22;38766;53.194;5.532;2023-07-29T05:57:25;18.20;99.90
51557;DHT22;38766;53.194;5.532;2023-07-29T05:59:51;18.20;99.90
51557;DHT22;38766;53.194;5.532;2023-07-29T06:02:17;18.20;99.90
51557;DHT22;38766;53.194;5.532;2023-07-29T06:04:42;18.30;99.90
51557;DHT22;38766;53.194;5.532;2023-07-29T06:07:08;18.30;99.90
51557;DHT22;38766;53.194;5.532;2023-07-29T06:09:33;18.30;99.90
51557;DHT22;38766;53.194;5.532;2023-07-29T06:11:59;18.40;99.90
51557;DHT22;38766;53.194;5.532;2023-07-29T06:14:25;18.40;99.90
51557;DHT22;38766;53.194;5.532;2023-07-29T06:16:51;18.40;99.90
51557;DHT22;38766;53.194;5.532;2023-07-29T06:19:17;18.50;99.90
51557;DHT22;38766;53.194;5.532;2023-07-29T06:21:43;18.50;99.90
51557;DHT22;38766;53.194;5.532;2023-07-29T06:24:09;18.50;99.90
51557;DHT22;38766;53.194;5.532;2023-07-29T06:26:37;18.50;99.90
51557;DHT22;38766;53.194;5.532;2023-07-29T06:29:03;18.50;99.90
51557;DHT22;38766;53.194;5.532;2023-07-29T06:31:29;18.50;99.90
51557;DHT22;38766;53.194;5.532;2023-07-29T06:33:55;18.50;99.90
51557;DHT22;38766;53.194;5.532;2023-07-29T06:36:21;18.50;99.90
51557;DHT22;38766;53.194;5.532;2023-07-29T06:38:47;18.50;99.90
51557;DHT22;38766;53.194;5.532;2023-07-29T06:41:12;18.60;99.90
51557;DHT22;38766;53.194;5.532;2023-07-29T06:43:38;18.60;99.90
51557;DHT22;38766;53.194;5.532;2023-07-29T06:46:04;18.60;99.90
51557;DHT22;38766;53.194;5.532;2023-07-29T06:48:29;18.60;99.90
51557;DHT22;38766;53.194;5.532;2023-07-29T06:50:55;18.60;99.90
51557;DHT22;38766;53.194;5.532;2023-07-29T06:53:21;18.60;99.90
51557;DHT22;38766;53.194;5.532;2023-07-29T06:55:47;18.60;99.90
51557;DHT22;38766;53.194;5.532;2023-07-29T06:58:12;18.60;99.90
51557;DHT22;38766;53.194;5.532;2023-07-29T07:00:38;18.60;99.90
51557;DHT22;38766;53.194;5.532;2023-07-29T07:03:04;18.70;99.90
51557;DHT22;38766;53.194;5.532;2023-07-29T07:05:32;18.80;99.90
51557;DHT22;38766;53.194;5.532;2023-07-29T07:07:57;18.90;99.90
51557;DHT22;38766;53.194;5.532;2023-07-29T07:10:23;18.90;99.90
51557;DHT22;38766;53.194;5.532;2023-07-29T07:12:49;19.00;99.90
51557;DHT22;38766;53.194;5.532;2023-07-29T07:15:14;19.00;99.90
51557;DHT22;38766;53.194;5.532;2023-07-29T07:17:40;19.00;99.90
51557;DHT22;38766;53.194;5.532;2023-07-29T07:20:07;19.00;99.90
51557;DHT22;38766;53.194;5.532;2023-07-29T07:22:33;19.10;99.90
51557;DHT22;38766;53.194;5.532;2023-07-29T07:24:58;19.10;99.90
51557;DHT22;38766;53.194;5.532;2023-07-29T07:27:24;19.10;99.90
51557;DHT22;38766;53.194;5.532;2023-07-29T07:29:52;19.20;99.90
51557;DHT22;38766;53.194;5.532;2023-07-29T07:32:18;19.20;99.90
51557;DHT22;38766;53.194;5.532;2023-07-29T07:34:44;19.20;99.90
51557;DHT22;38766;53.194;5.532;2023-07-29T07:37:09;19.30;99.90
51557;DHT22;38766;53.194;5.532;2023-07-29T07:39:35;19.30;99.90
51557;DHT22;38766;53.194;5.532;2023-07-29T07:42:01;19.30;99.90
51557;DHT22;38766;53.194;5.532;2023-07-29T07:44:27;19.30;99.90
51557;DHT22;38766;53.194;5.532;2023-07-29T07:46:53;19.40;99.90
51557;DHT22;38766;53.194;5.532;2023-07-29T07:49:22;19.50;99.90
51557;DHT22;38766;53.194;5.532;2023-07-29T07:51:48;19.60;99.90
51557;DHT22;38766;53.194;5.532;2023-07-29T07:54:14;19.70;99.90
51557;DHT22;38766;53.194;5.532;2023-07-29T07:56:39;19.80;99.90
51557;DHT22;38766;53.194;5.532;2023-07-29T07:59:05;19.80;99.90
51557;DHT22;38766;53.194;5.532;2023-07-29T08:01:35;19.80;99.90
51557;DHT22;38766;53.194;5.532;2023-07-29T08:04:01;19.90;99.90
51557;DHT22;38766;53.194;5.532;2023-07-29T08:06:27;19.90;99.90
51557;DHT22;38766;53.194;5.532;2023-07-29T08:08:52;19.90;99.90
51557;DHT22;38766;53.194;5.532;2023-07-29T08:11:18;20.00;99.90
51557;DHT22;38766;53.194;5.532;2023-07-29T08:13:43;20.00;99.90
51557;DHT22;38766;53.194;5.532;2023-07-29T08:16:09;20.10;99.90
51557;DHT22;38766;53.194;5.532;2023-07-29T08:18:35;20.20;99.90
51557;DHT22;38766;53.194;5.532;2023-07-29T08:21:01;20.30;99.90
51557;DHT22;38766;53.194;5.532;2023-07-29T08:23:30;20.40;99.90
51557;DHT22;38766;53.194;5.532;2023-07-29T08:26:01;20.50;99.90
51557;DHT22;38766;53.194;5.532;2023-07-29T08:28:31;20.50;99.90
51557;DHT22;38766;53.194;5.532;2023-07-29T08:30:57;20.40;99.90
51557;DHT22;38766;53.194;5.532;2023-07-29T08:33:23;20.40;99.90
51557;DHT22;38766;53.194;5.532;2023-07-29T08:35:49;20.30;99.90
51557;DHT22;38766;53.194;5.532;2023-07-29T08:38:15;20.30;99.90
51557;DHT22;38766;53.194;5.532;2023-07-29T08:40:44;20.20;99.90
51557;DHT22;38766;53.194;5.532;2023-07-29T08:43:12;20.20;99.90
51557;DHT22;38766;53.194;5.532;2023-07-29T08:45:40;20.10;99.90
51557;DHT22;38766;53.194;5.532;2023-07-29T08:48:10;20.10;99.90
51557;DHT22;38766;53.194;5.532;2023-07-29T08:50:37;20.10;99.90
51557;DHT22;38766;53.194;5.532;2023-07-29T08:53:06;20.00;99.90
51557;DHT22;38766;53.194;5.532;2023-07-29T08:55:32;20.00;99.90
51557;DHT22;38766;53.194;5.532;2023-07-29T08:58:01;20.10;99.90
51557;DHT22;38766;53.194;5.532;2023-07-29T09:00:28;20.10;99.90
51557;DHT22;38766;53.194;5.532;2023-07-29T09:02:54;20.10;99.90
51557;DHT22;38766;53.194;5.532;2023-07-29T09:05:21;20.00;99.90
51557;DHT22;38766;53.194;5.532;2023-07-29T09:07:48;20.00;99.90
51557;DHT22;38766;53.194;5.532;2023-07-29T09:10:15;19.90;99.90
51557;DHT22;38766;53.194;5.532;2023-07-29T09:12:41;19.90;99.90
51557;DHT22;38766;53.194;5.532;2023-07-29T09:15:07;20.00;99.90
51557;DHT22;38766;53.194;5.532;2023-07-29T09:17:33;20.00;99.90
51557;DHT22;38766;53.194;5.532;2023-07-29T09:19:59;20.00;99.90
51557;DHT22;38766;53.194;5.532;2023-07-29T09:22:27;20.10;99.90
51557;DHT22;38766;53.194;5.532;2023-07-29T09:24:53;20.00;99.90
51557;DHT22;38766;53.194;5.532;2023-07-29T09:27:28;20.10;99.90
51557;DHT22;38766;53.194;5.532;2023-07-29T09:29:57;20.10;99.90
51557;DHT22;38766;53.194;5.532;2023-07-29T09:32:24;20.30;99.90
51557;DHT22;38766;53.194;5.532;2023-07-29T09:34:50;20.40;99.90
51557;DHT22;38766;53.194;5.532;2023-07-29T09:37:17;20.40;99.90
51557;DHT22;38766;53.194;5.532;2023-07-29T09:39:48;20.40;99.90
51557;DHT22;38766;53.194;5.532;2023-07-29T09:42:20;20.50;99.90
51557;DHT22;38766;53.194;5.532;2023-07-29T09:44:49;20.50;99.90
51557;DHT22;38766;53.194;5.532;2023-07-29T09:47:25;20.50;99.90
51557;DHT22;38766;53.194;5.532;2023-07-29T09:49:51;20.50;99.90
51557;DHT22;38766;53.194;5.532;2023-07-29T09:52:18;20.40;99.90
51557;DHT22;38766;53.194;5.532;2023-07-29T09:54:44;20.40;99.90
51557;DHT22;38766;53.194;5.532;2023-07-29T09:57:14;20.40;99.90
51557;DHT22;38766;53.194;5.532;2023-07-29T09:59:41;20.40;99.90
51557;DHT22;38766;53.194;5.532;2023-07-29T10:02:15;20.40;99.90
51557;DHT22;38766;53.194;5.532;2023-07-29T10:04:42;20.40;99.90
51557;DHT22;38766;53.194;5.532;2023-07-29T10:07:10;20.50;99.90
51557;DHT22;38766;53.194;5.532;2023-07-29T10:09:37;20.50;99.90
51557;DHT22;38766;53.194;5.532;2023-07-29T10:12:06;20.50;99.90
51557;DHT22;38766;53.194;5.532;2023-07-29T10:14:32;20.60;99.90
51557;DHT22;38766;53.194;5.532;2023-07-29T10:16:58;20.70;99.90
51557;DHT22;38766;53.194;5.532;2023-07-29T10:19:25;20.70;99.90
51557;DHT22;38766;53.194;5.532;2023-07-29T10:21:52;20.80;99.90
51557;DHT22;38766;53.194;5.532;2023-07-29T10:24:24;20.70;99.90
51557;DHT22;38766;53.194;5.532;2023-07-29T10:27:00;20.70;99.90
51557;DHT22;38766;53.194;5.532;2023-07-29T10:29:34;20.50;99.90
51557;DHT22;38766;53.194;5.532;2023-07-29T10:32:04;20.50;99.90
51557;DHT22;38766;53.194;5.532;2023-07-29T10:34:31;20.30;99.90
51557;DHT22;38766;53.194;5.532;2023-07-29T10:36:57;20.20;99.90
51557;DHT22;38766;53.194;5.532;2023-07-29T10:39:25;20.10;99.90
51557;DHT22;38766;53.194;5.532;2023-07-29T10:41:55;20.00;99.90
51557;DHT22;38766;53.194;5.532;2023-07-29T10:47:17;20.00;99.90
51557;DHT22;38766;53.194;5.532;2023-07-29T10:49:43;19.90;99.90
51557;DHT22;38766;53.194;5.532;2023-07-29T10:52:16;20.00;99.90
51557;DHT22;38766;53.194;5.532;2023-07-29T10:54:47;19.90;99.90
51557;DHT22;38766;53.194;5.532;2023-07-29T10:57:14;20.00;99.90
51557;DHT22;38766;53.194;5.532;2023-07-29T10:59:41;20.00;99.90
51557;DHT22;38766;53.194;5.532;2023-07-29T11:02:17;19.90;99.90
51557;DHT22;38766;53.194;5.532;2023-07-29T11:04:51;20.00;99.90
51557;DHT22;38766;53.194;5.532;2023-07-29T11:12:45;20.20;99.90
51557;DHT22;38766;53.194;5.532;2023-07-29T11:17:53;20.70;99.90
51557;DHT22;38766;53.194;5.532;2023-07-29T11:20:21;20.90;99.90
51557;DHT22;38766;53.194;5.532;2023-07-29T11:22:47;21.20;99.90
51557;DHT22;38766;53.194;5.532;2023-07-29T11:25:15;21.40;99.90
51557;DHT22;38766;53.194;5.532;2023-07-29T11:27:41;21.60;99.90
51557;DHT22;38766;53.194;5.532;2023-07-29T11:30:09;21.70;99.90
51557;DHT22;38766;53.194;5.532;2023-07-29T11:32:36;21.80;99.90
51557;DHT22;38766;53.194;5.532;2023-07-29T11:35:04;22.00;99.90
51557;DHT22;38766;53.194;5.532;2023-07-29T11:37:29;22.10;99.90
51557;DHT22;38766;53.194;5.532;2023-07-29T11:39:55;22.20;99.90
51557;DHT22;38766;53.194;5.532;2023-07-29T11:42:21;22.20;99.90
51557;DHT22;38766;53.194;5.532;2023-07-29T11:44:46;22.10;99.90
51557;DHT22;38766;53.194;5.532;2023-07-29T11:47:13;21.90;99.90
51557;DHT22;38766;53.194;5.532;2023-07-29T11:49:40;21.80;99.90
51557;DHT22;38766;53.194;5.532;2023-07-29T11:52:10;21.70;99.90
51557;DHT22;38766;53.194;5.532;2023-07-29T11:54:36;21.70;99.90
51557;DHT22;38766;53.194;5.532;2023-07-29T11:57:08;21.60;99.90
51557;DHT22;38766;53.194;5.532;2023-07-29T11:59:36;21.40;99.90
51557;DHT22;38766;53.194;5.532;2023-07-29T12:02:06;21.40;99.90
51557;DHT22;38766;53.194;5.532;2023-07-29T12:04:34;21.50;99.90
51557;DHT22;38766;53.194;5.532;2023-07-29T12:07:00;21.40;99.90
51557;DHT22;38766;53.194;5.532;2023-07-29T12:09:27;21.30;99.90
51557;DHT22;38766;53.194;5.532;2023-07-29T12:11:54;21.10;99.90
51557;DHT22;38766;53.194;5.532;2023-07-29T12:14:19;21.10;99.90
51557;DHT22;38766;53.194;5.532;2023-07-29T12:16:49;21.00;99.90
51557;DHT22;38766;53.194;5.532;2023-07-29T12:19:15;21.00;99.90
51557;DHT22;38766;53.194;5.532;2023-07-29T12:21:42;21.00;99.90
51557;DHT22;38766;53.194;5.532;2023-07-29T12:24:08;21.00;99.90
51557;DHT22;38766;53.194;5.532;2023-07-29T12:26:35;21.00;99.90
51557;DHT22;38766;53.194;5.532;2023-07-29T12:29:12;21.00;99.90
51557;DHT22;38766;53.194;5.532;2023-07-29T12:31:38;20.90;99.90
51557;DHT22;38766;53.194;5.532;2023-07-29T12:34:04;20.80;99.90
51557;DHT22;38766;53.194;5.532;2023-07-29T12:36:47;20.80;99.90
51557;DHT22;38766;53.194;5.532;2023-07-29T12:39:17;20.90;99.90
51557;DHT22;38766;53.194;5.532;2023-07-29T12:41:43;20.80;99.90
51557;DHT22;38766;53.194;5.532;2023-07-29T12:44:09;20.80;99.90
51557;DHT22;38766;53.194;5.532;2023-07-29T12:46:34;20.90;99.90
51557;DHT22;38766;53.194;5.532;2023-07-29T12:49:00;21.00;99.90
51557;DHT22;38766;53.194;5.532;2023-07-29T12:51:26;21.00;99.90
51557;DHT22;38766;53.194;5.532;2023-07-29T12:53:51;21.10;99.90
51557;DHT22;38766;53.194;5.532;2023-07-29T12:56:17;21.20;99.90
51557;DHT22;38766;53.194;5.532;2023-07-29T12:58:43;21.40;99.90
51557;DHT22;38766;53.194;5.532;2023-07-29T13:01:08;21.60;99.90
51557;DHT22;38766;53.194;5.532;2023-07-29T13:03:34;21.70;99.90
51557;DHT22;38766;53.194;5.532;2023-07-29T13:06:00;21.80;99.90
51557;DHT22;38766;53.194;5.532;2023-07-29T13:08:26;22.00;99.90
51557;DHT22;38766;53.194;5.532;2023-07-29T13:10:51;22.10;99.90
51557;DHT22;38766;53.194;5.532;2023-07-29T13:13:17;22.20;99.90
51557;DHT22;38766;53.194;5.532;2023-07-29T13:15:43;22.30;99.90
51557;DHT22;38766;53.194;5.532;2023-07-29T13:18:09;22.40;99.90
51557;DHT22;38766;53.194;5.532;2023-07-29T13:20:34;22.40;99.90
51557;DHT22;38766;53.194;5.532;2023-07-29T13:23:00;22.50;99.90
51557;DHT22;38766;53.194;5.532;2023-07-29T13:25:26;22.50;99.90
51557;DHT22;38766;53.194;5.532;2023-07-29T13:27:51;22.50;99.90
51557;DHT22;38766;53.194;5.532;2023-07-29T13:30:17;22.50;99.90
51557;DHT22;38766;53.194;5.532;2023-07-29T13:32:42;22.60;99.90
51557;DHT22;38766;53.194;5.532;2023-07-29T13:35:08;22.60;99.90
51557;DHT22;38766;53.194;5.532;2023-07-29T13:37:34;22.60;99.90
51557;DHT22;38766;53.194;5.532;2023-07-29T13:39:59;22.60;99.90
51557;DHT22;38766;53.194;5.532;2023-07-29T13:42:25;22.70;99.90
51557;DHT22;38766;53.194;5.532;2023-07-29T13:44:50;22.60;99.90
51557;DHT22;38766;53.194;5.532;2023-07-29T13:47:16;22.70;99.90
51557;DHT22;38766;53.194;5.532;2023-07-29T13:49:42;22.70;99.90
51557;DHT22;38766;53.194;5.532;2023-07-29T13:52:07;22.80;99.90
51557;DHT22;38766;53.194;5.532;2023-07-29T13:54:33;22.80;99.90
51557;DHT22;38766;53.194;5.532;2023-07-29T13:56:59;22.70;99.90
51557;DHT22;38766;53.194;5.532;2023-07-29T13:59:24;22.70;99.90
51557;DHT22;38766;53.194;5.532;2023-07-29T14:01:50;22.70;99.90
51557;DHT22;38766;53.194;5.532;2023-07-29T14:04:16;22.80;99.90
51557;DHT22;38766;53.194;5.532;2023-07-29T14:06:41;22.80;99.90
51557;DHT22;38766;53.194;5.532;2023-07-29T14:09:07;22.80;99.90
51557;DHT22;38766;53.194;5.532;2023-07-29T14:11:33;22.90;99.90
51557;DHT22;38766;53.194;5.532;2023-07-29T14:13:58;22.90;99.90
51557;DHT22;38766;53.194;5.532;2023-07-29T14:16:24;23.00;99.90
51557;DHT22;38766;53.194;5.532;2023-07-29T14:18:50;23.00;99.90
51557;DHT22;38766;53.194;5.532;2023-07-29T14:21:15;23.00;99.90
51557;DHT22;38766;53.194;5.532;2023-07-29T14:23:41;22.90;99.90
51557;DHT22;38766;53.194;5.532;2023-07-29T14:26:06;23.00;99.90
51557;DHT22;38766;53.194;5.532;2023-07-29T14:28:35;23.00;99.90
51557;DHT22;38766;53.194;5.532;2023-07-29T14:31:01;23.00;99.90
51557;DHT22;38766;53.194;5.532;2023-07-29T14:33:27;23.00;99.90
51557;DHT22;38766;53.194;5.532;2023-07-29T14:35:53;23.10;99.90
51557;DHT22;38766;53.194;5.532;2023-07-29T14:38:19;23.10;99.90
51557;DHT22;38766;53.194;5.532;2023-07-29T14:40:47;23.10;99.90
51557;DHT22;38766;53.194;5.532;2023-07-29T14:43:13;23.10;99.90
51557;DHT22;38766;53.194;5.532;2023-07-29T14:45:39;23.10;99.90
51557;DHT22;38766;53.194;5.532;2023-07-29T14:48:04;23.10;99.90
51557;DHT22;38766;53.194;5.532;2023-07-29T14:50:30;23.00;99.90
51557;DHT22;38766;53.194;5.532;2023-07-29T14:52:56;23.00;99.90
51557;DHT22;38766;53.194;5.532;2023-07-29T14:55:21;23.10;99.90
51557;DHT22;38766;53.194;5.532;2023-07-29T14:57:47;23.10;99.90
51557;DHT22;38766;53.194;5.532;2023-07-29T15:00:13;23.10;99.90
51557;DHT22;38766;53.194;5.532;2023-07-29T15:02:40;23.10;99.90
51557;DHT22;38766;53.194;5.532;2023-07-29T15:05:06;23.00;99.90
51557;DHT22;38766;53.194;5.532;2023-07-29T15:07:32;23.00;99.90
51557;DHT22;38766;53.194;5.532;2023-07-29T15:09:58;23.00;99.90
51557;DHT22;38766;53.194;5.532;2023-07-29T15:12:23;23.00;99.90
51557;DHT22;38766;53.194;5.532;2023-07-29T15:14:49;23.00;99.90
51557;DHT22;38766;53.194;5.532;2023-07-29T15:17:15;23.10;99.90
51557;DHT22;38766;53.194;5.532;2023-07-29T15:19:41;23.00;99.90
51557;DHT22;38766;53.194;5.532;2023-07-29T15:22:06;23.00;99.90
51557;DHT22;38766;53.194;5.532;2023-07-29T15:24:32;23.00;99.90
51557;DHT22;38766;53.194;5.532;2023-07-29T15:26:57;23.00;99.90
51557;DHT22;38766;53.194;5.532;2023-07-29T15:29:23;23.10;99.90
51557;DHT22;38766;53.194;5.532;2023-07-29T15:31:49;23.10;99.90
51557;DHT22;38766;53.194;5.532;2023-07-29T15:34:14;23.10;99.90
51557;DHT22;38766;53.194;5.532;2023-07-29T15:36:41;23.10;99.90
51557;DHT22;38766;53.194;5.532;2023-07-29T15:39:07;23.10;99.90
51557;DHT22;38766;53.194;5.532;2023-07-29T15:41:34;23.20;99.90